Time;durP1;ratioP1;P1;durP2;ratioP2;P2;SDS_P1;SDS_P2;PMS_P1;PMS_P2;Temp;Humidity;BMP_temperature;BMP_pressure;BME280_temperature;BME280_humidity;BME280_pressure;Samples;Min_cycle;Max_cycle;Signal;HPM_P1;HPM_P2
2023/12/25 00:01:36;;;;;;;12.75;2.20;;;12.80;99.90;;;;;;5085105;28;20388;-76
2023/12/25 00:04:02;;;;;;;10.10;2.55;;;12.60;99.90;;;;;;5085609;28;20032;-76
2023/12/25 00:06:28;;;;;;;11.57;2.72;;;12.70;99.90;;;;;;5086097;28;20035;-78
2023/12/25 00:08:53;;;;;;;11.55;3.88;;;12.70;99.90;;;;;;5087803;28;20044;-78
2023/12/25 00:11:19;;;;;;;11.07;2.55;;;12.80;99.90;;;;;;5069944;28;20121;-78
2023/12/25 00:13:46;;;;;;;20.13;2.78;;;12.70;99.90;;;;;;5088553;28;20041;-78
2023/12/25 00:16:12;;;;;;;11.02;2.40;;;12.70;99.90;;;;;;5085654;28;20072;-78
2023/12/25 00:18:38;;;;;;;10.27;2.63;;;12.70;99.90;;;;;;5080132;28;20047;-78
2023/12/25 00:21:04;;;;;;;9.23;1.67;;;12.70;99.90;;;;;;5080865;28;20507;-78
2023/12/25 00:23:29;;;;;;;13.35;2.30;;;12.70;99.90;;;;;;5079960;28;20036;-76
2023/12/25 00:25:55;;;;;;;12.65;3.03;;;12.70;99.90;;;;;;5080616;28;20068;-78
2023/12/25 00:28:21;;;;;;;14.32;2.28;;;12.80;99.90;;;;;;5045576;28;20674;-78
2023/12/25 00:30:46;;;;;;;8.75;2.25;;;12.70;99.90;;;;;;5080283;28;20515;-78
2023/12/25 00:33:12;;;;;;;13.45;3.53;;;12.80;99.90;;;;;;5080513;28;20037;-78
2023/12/25 00:35:37;;;;;;;8.93;3.08;;;12.80;99.90;;;;;;5080089;28;20115;-78
2023/12/25 00:38:04;;;;;;;12.90;2.65;;;12.80;99.90;;;;;;5080061;28;20109;-78
2023/12/25 00:40:29;;;;;;;9.70;2.30;;;12.70;99.90;;;;;;5062112;28;20055;-78
2023/12/25 00:42:55;;;;;;;18.00;3.28;;;12.80;99.90;;;;;;5080310;28;20036;-78
2023/12/25 00:45:20;;;;;;;9.50;2.55;;;12.80;99.90;;;;;;5046086;28;20072;-78
2023/12/25 00:47:46;;;;;;;12.40;2.75;;;12.70;99.90;;;;;;5080547;28;20040;-78
2023/12/25 00:50:12;;;;;;;13.18;2.92;;;12.80;99.90;;;;;;5062119;28;20050;-78
2023/12/25 00:52:37;;;;;;;11.82;2.63;;;12.80;99.90;;;;;;5079984;28;20043;-78
2023/12/25 00:55:03;;;;;;;8.30;2.03;;;12.90;99.90;;;;;;5080271;28;20037;-78
2023/12/25 00:57:29;;;;;;;9.25;2.28;;;12.80;99.90;;;;;;5080337;28;20553;-78
2023/12/25 00:59:55;;;;;;;9.98;2.30;;;12.70;99.90;;;;;;5080906;28;20033;-78
2023/12/25 01:02:21;;;;;;;11.68;2.13;;;12.80;99.90;;;;;;5079892;28;20047;-78
2023/12/25 01:04:46;;;;;;;11.15;1.92;;;12.80;99.90;;;;;;5079701;28;20052;-78
2023/12/25 01:07:12;;;;;;;8.10;2.10;;;12.70;99.90;;;;;;5080175;28;20128;-78
2023/12/25 01:09:37;;;;;;;9.23;1.98;;;12.70;99.90;;;;;;5080730;28;20044;-78
2023/12/25 01:12:03;;;;;;;4.63;1.45;;;12.80;99.90;;;;;;5046230;28;20109;-78
2023/12/25 01:14:29;;;;;;;9.02;1.58;;;12.70;99.90;;;;;;5079827;28;20064;-77
2023/12/25 01:16:54;;;;;;;6.93;1.15;;;12.70;99.90;;;;;;5045237;28;20096;-78
2023/12/25 01:19:20;;;;;;;7.30;1.63;;;12.70;99.90;;;;;;5079517;28;20028;-78
2023/12/25 01:21:46;;;;;;;6.97;1.38;;;12.60;99.90;;;;;;5045634;28;20040;-78
2023/12/25 01:24:12;;;;;;;8.27;2.17;;;12.70;99.90;;;;;;5045557;28;20051;-75
2023/12/25 01:26:38;;;;;;;7.65;1.40;;;12.70;99.90;;;;;;5062435;28;20036;-78
2023/12/25 01:29:03;;;;;;;8.63;1.45;;;12.60;99.90;;;;;;5062145;28;20518;-76
2023/12/25 01:31:29;;;;;;;4.68;1.17;;;12.50;99.90;;;;;;5047041;28;20044;-76
2023/12/25 01:33:54;;;;;;;5.25;1.42;;;12.60;99.90;;;;;;5080257;28;20096;-78
2023/12/25 01:36:20;;;;;;;5.75;1.35;;;12.60;99.90;;;;;;5046250;28;20044;-78
2023/12/25 01:38:46;;;;;;;5.75;1.20;;;12.50;99.90;;;;;;5081483;28;20043;-76
2023/12/25 01:41:11;;;;;;;5.22;1.27;;;12.60;99.90;;;;;;5063337;28;20508;-76
2023/12/25 01:43:37;;;;;;;5.97;1.70;;;12.50;99.90;;;;;;5062013;28;20036;-76
2023/12/25 01:46:03;;;;;;;7.47;1.65;;;12.50;99.90;;;;;;5044277;28;20037;-76
2023/12/25 01:48:29;;;;;;;9.25;1.23;;;12.50;99.90;;;;;;5043518;28;20097;-76
2023/12/25 01:51:00;;;;;;;8.15;2.03;;;12.40;99.90;;;;;;5060073;28;20496;-76
2023/12/25 01:53:26;;;;;;;10.20;1.90;;;12.30;99.90;;;;;;5078197;28;20057;-76
2023/12/25 01:55:52;;;;;;;7.80;2.03;;;12.40;99.90;;;;;;5077321;28;20120;-76
2023/12/25 01:58:17;;;;;;;6.65;1.65;;;12.30;99.90;;;;;;5060520;28;20036;-75
2023/12/25 02:00:43;;;;;;;8.40;1.65;;;12.30;99.90;;;;;;5058344;28;20048;-76
2023/12/25 02:03:09;;;;;;;12.98;2.38;;;12.30;99.90;;;;;;5042847;28;20052;-76
2023/12/25 02:05:35;;;;;;;5.40;1.48;;;12.30;99.90;;;;;;5076055;28;20040;-76
2023/12/25 02:08:02;;;;;;;11.27;2.28;;;12.20;99.90;;;;;;5077449;28;20500;-76
2023/12/25 02:10:29;;;;;;;6.15;1.70;;;12.10;99.90;;;;;;5059445;28;20039;-76
2023/12/25 02:12:55;;;;;;;6.93;2.25;;;12.10;99.90;;;;;;5060052;28;20040;-75
2023/12/25 02:15:22;;;;;;;9.77;1.50;;;12.10;99.90;;;;;;5059625;28;20036;-75
2023/12/25 02:17:50;;;;;;;6.35;2.22;;;12.20;99.90;;;;;;5059885;28;20033;-76
2023/12/25 02:20:16;;;;;;;9.15;1.60;;;12.10;99.90;;;;;;5058167;28;20112;-76
2023/12/25 02:22:42;;;;;;;8.02;1.80;;;12.10;99.90;;;;;;5060189;28;20089;-76
2023/12/25 02:25:18;;;;;;;5.68;1.35;;;12.00;99.90;;;;;;5060751;28;20513;-76
2023/12/25 02:27:43;;;;;;;10.40;2.45;;;12.00;99.90;;;;;;5078717;28;20032;-76
2023/12/25 02:30:09;;;;;;;13.45;2.35;;;12.00;99.90;;;;;;5060852;28;20052;-76
2023/12/25 02:32:35;;;;;;;6.68;1.60;;;11.90;99.90;;;;;;5078575;28;20037;-76
2023/12/25 02:35:00;;;;;;;12.68;2.35;;;11.80;99.90;;;;;;5077711;28;20037;-76
2023/12/25 02:37:26;;;;;;;4.75;1.58;;;11.90;99.90;;;;;;5078212;28;20098;-76
2023/12/25 02:39:52;;;;;;;6.72;2.08;;;11.90;99.90;;;;;;5079023;28;20119;-76
2023/12/25 02:42:17;;;;;;;11.57;2.10;;;11.90;99.90;;;;;;5060787;28;20051;-76
2023/12/25 02:44:43;;;;;;;5.25;1.40;;;12.00;99.90;;;;;;5084576;22;20064;-73
2023/12/25 02:47:08;;;;;;;12.02;2.97;;;11.90;99.90;;;;;;5069673;28;20044;-73
2023/12/25 02:49:34;;;;;;;9.20;2.00;;;11.80;99.90;;;;;;5070207;28;20509;-73
2023/12/25 02:52:00;;;;;;;9.43;1.67;;;11.90;99.90;;;;;;5070020;28;20032;-74
2023/12/25 02:54:25;;;;;;;11.75;2.28;;;11.90;99.90;;;;;;5070240;28;20090;-74
2023/12/25 02:56:51;;;;;;;9.02;2.78;;;11.90;99.90;;;;;;5069934;28;20094;-73
2023/12/25 02:59:16;;;;;;;10.13;2.35;;;11.90;99.90;;;;;;5070276;28;20040;-72
2023/12/25 03:01:42;;;;;;;12.00;2.95;;;11.90;99.90;;;;;;5070220;28;20037;-73
2023/12/25 03:04:08;;;;;;;9.65;2.28;;;12.00;99.90;;;;;;5070340;28;20044;-73
2023/12/25 03:06:33;;;;;;;6.32;1.40;;;12.00;99.90;;;;;;5053368;28;20512;-73
2023/12/25 03:08:59;;;;;;;8.02;1.60;;;12.10;99.90;;;;;;5070001;28;20075;-73
2023/12/25 03:11:24;;;;;;;12.10;3.10;;;12.00;99.90;;;;;;5070093;28;20064;-73
2023/12/25 03:13:50;;;;;;;9.68;1.85;;;12.00;99.90;;;;;;5069960;28;20037;-73
2023/12/25 03:16:18;;;;;;;6.43;1.60;;;12.00;99.90;;;;;;5069951;28;20040;-73
2023/12/25 03:18:44;;;;;;;9.00;1.60;;;12.00;99.90;;;;;;5069928;28;20120;-73
2023/12/25 03:21:09;;;;;;;5.47;1.55;;;12.00;99.90;;;;;;5070352;28;20472;-73
2023/12/25 03:23:35;;;;;;;7.63;2.03;;;12.00;99.90;;;;;;5071263;28;20068;-73
2023/12/25 03:26:00;;;;;;;6.95;2.05;;;12.10;99.90;;;;;;5069725;28;20050;-73
2023/12/25 03:28:27;;;;;;;3.92;1.08;;;12.10;99.90;;;;;;5069842;28;20048;-73
2023/12/25 03:30:54;;;;;;;10.95;2.50;;;12.10;99.90;;;;;;5053205;28;20040;-72
2023/12/25 03:33:19;;;;;;;12.30;1.88;;;12.10;99.90;;;;;;5069903;28;20060;-73
2023/12/25 03:35:45;;;;;;;5.53;1.55;;;12.00;99.90;;;;;;5069872;28;20407;-73
2023/12/25 03:38:11;;;;;;;10.45;1.73;;;12.10;99.90;;;;;;5069710;28;20123;-73
2023/12/25 03:40:37;;;;;;;8.02;1.50;;;12.00;99.90;;;;;;5070058;28;20060;-73
2023/12/25 03:43:03;;;;;;;14.57;2.97;;;12.10;99.90;;;;;;5069994;28;20143;-73
2023/12/25 03:45:28;;;;;;;8.68;1.85;;;12.00;99.90;;;;;;5072997;28;20055;-73
2023/12/25 03:47:54;;;;;;;13.00;2.00;;;12.00;99.90;;;;;;5066101;28;20408;-73
2023/12/25 03:50:19;;;;;;;8.57;1.73;;;11.90;99.90;;;;;;5065375;28;20040;-73
2023/12/25 03:52:45;;;;;;;11.23;1.65;;;12.00;99.90;;;;;;5062890;28;20036;-73
2023/12/25 03:55:10;;;;;;;7.35;1.75;;;11.90;99.90;;;;;;5065258;28;20040;-73
2023/12/25 03:57:36;;;;;;;12.48;1.88;;;11.80;99.90;;;;;;5064731;28;20068;-73
2023/12/25 04:00:03;;;;;;;7.57;1.67;;;11.80;99.90;;;;;;5073607;28;20404;-73
2023/12/25 04:02:28;;;;;;;9.77;1.95;;;11.80;99.90;;;;;;5064905;28;20044;-73
2023/12/25 04:04:54;;;;;;;12.55;2.78;;;11.80;99.90;;;;;;5073224;28;20415;-73
2023/12/25 04:07:19;;;;;;;9.85;1.98;;;11.80;99.90;;;;;;5073245;28;20080;-73
2023/12/25 04:09:45;;;;;;;9.32;2.20;;;11.80;99.90;;;;;;5073349;28;20492;-73
2023/12/25 04:12:11;;;;;;;6.20;2.08;;;11.80;99.90;;;;;;5056428;28;20066;-73
2023/12/25 04:14:40;;;;;;;7.65;1.65;;;11.80;99.90;;;;;;5039583;28;20440;-73
2023/12/25 04:17:05;;;;;;;8.75;2.00;;;11.80;99.90;;;;;;5056050;28;20040;-73
2023/12/25 04:19:32;;;;;;;7.60;1.70;;;11.80;99.90;;;;;;5073285;28;20032;-73
2023/12/25 04:21:58;;;;;;;11.50;3.10;;;11.80;99.90;;;;;;5072968;28;20032;-73
2023/12/25 04:24:23;;;;;;;12.10;2.42;;;11.90;99.90;;;;;;5072766;28;20044;-74
2023/12/25 04:26:49;;;;;;;7.88;1.88;;;11.90;99.90;;;;;;5072598;28;20025;-73
2023/12/25 04:29:15;;;;;;;9.00;2.00;;;11.80;99.90;;;;;;5064486;28;20420;-73
2023/12/25 04:31:40;;;;;;;12.20;2.42;;;11.80;99.90;;;;;;5072821;28;20037;-73
2023/12/25 04:34:06;;;;;;;13.02;2.20;;;11.70;99.90;;;;;;5072604;28;20048;-73
2023/12/25 04:36:32;;;;;;;7.03;1.90;;;11.60;99.90;;;;;;5072570;28;20037;-73
2023/12/25 04:39:01;;;;;;;5.28;1.70;;;11.70;99.90;;;;;;5072399;28;20412;-73
2023/12/25 04:41:27;;;;;;;13.48;3.00;;;11.70;99.90;;;;;;5055888;28;20039;-73
2023/12/25 04:43:53;;;;;;;8.32;2.30;;;11.70;99.90;;;;;;5072601;28;20051;-73
2023/12/25 04:46:19;;;;;;;14.98;3.53;;;11.70;99.90;;;;;;5072210;28;20040;-73
2023/12/25 04:48:45;;;;;;;14.93;1.90;;;11.80;99.90;;;;;;5072345;28;20044;-73
2023/12/25 04:51:11;;;;;;;11.38;2.45;;;11.70;99.90;;;;;;5072414;28;20531;-73
2023/12/25 04:53:36;;;;;;;15.95;2.40;;;11.70;99.90;;;;;;5072278;28;20036;-73
2023/12/25 04:56:03;;;;;;;11.38;1.63;;;11.70;99.90;;;;;;5071670;28;20434;-73
2023/12/25 04:58:29;;;;;;;9.15;2.17;;;11.60;99.90;;;;;;5072127;28;20044;-73
2023/12/25 05:00:55;;;;;;;9.50;2.50;;;11.60;99.90;;;;;;5072257;28;20408;-73
2023/12/25 05:03:23;;;;;;;6.15;1.95;;;11.50;99.90;;;;;;5072199;28;20032;-73
2023/12/25 05:05:49;;;;;;;14.02;2.10;;;11.40;99.90;;;;;;5071927;28;20432;-73
2023/12/25 05:08:15;;;;;;;12.65;2.20;;;11.30;99.90;;;;;;5071955;28;20037;-73
2023/12/25 05:10:41;;;;;;;6.55;1.40;;;11.20;99.90;;;;;;5072060;28;20044;-73
2023/12/25 05:13:07;;;;;;;14.27;2.72;;;11.20;99.90;;;;;;5065546;28;20135;-74
2023/12/25 05:15:33;;;;;;;8.70;1.83;;;11.20;99.90;;;;;;5053612;28;20415;-74
2023/12/25 05:17:58;;;;;;;16.92;2.30;;;11.20;99.90;;;;;;5071638;28;20120;-74
2023/12/25 05:20:24;;;;;;;13.70;2.40;;;11.10;99.90;;;;;;5071837;28;20102;-73
2023/12/25 05:22:50;;;;;;;8.57;2.25;;;11.10;99.90;;;;;;5072056;28;20128;-74
2023/12/25 05:25:15;;;;;;;13.30;2.63;;;11.10;99.90;;;;;;5071726;28;20044;-74
2023/12/25 05:27:41;;;;;;;10.18;1.90;;;11.10;99.90;;;;;;5054894;28;20119;-74
2023/12/25 05:30:08;;;;;;;7.72;1.70;;;11.10;99.90;;;;;;5071672;28;20090;-74
2023/12/25 05:32:35;;;;;;;13.73;2.33;;;11.10;99.90;;;;;;5071583;28;20090;-74
2023/12/25 05:35:01;;;;;;;9.45;2.17;;;11.10;99.90;;;;;;5071716;28;20506;-74
2023/12/25 05:37:26;;;;;;;13.23;1.98;;;11.10;99.90;;;;;;5071264;28;20068;-74
2023/12/25 05:39:52;;;;;;;14.05;3.45;;;11.10;99.90;;;;;;5071509;28;20380;-74
2023/12/25 05:42:18;;;;;;;8.60;1.90;;;11.10;99.90;;;;;;5071456;28;20051;-74
2023/12/25 05:44:43;;;;;;;12.75;2.10;;;11.00;99.90;;;;;;5071163;28;20411;-74
2023/12/25 05:47:09;;;;;;;10.13;2.22;;;11.10;99.90;;;;;;5071112;28;20040;-74
2023/12/25 05:49:34;;;;;;;14.77;1.88;;;11.10;99.90;;;;;;5071227;28;20036;-74
2023/12/25 05:52:00;;;;;;;12.10;3.00;;;11.00;99.90;;;;;;5071236;28;20129;-74
2023/12/25 05:54:26;;;;;;;7.93;1.92;;;11.00;99.90;;;;;;5071237;28;20557;-74
2023/12/25 05:56:51;;;;;;;14.40;2.50;;;11.00;99.90;;;;;;5070922;28;20119;-74
2023/12/25 05:59:17;;;;;;;12.90;2.20;;;11.00;99.90;;;;;;5071356;28;20048;-74
2023/12/25 06:01:43;;;;;;;13.25;3.33;;;10.90;99.90;;;;;;5071151;28;20495;-74
2023/12/25 06:04:08;;;;;;;8.35;2.28;;;10.90;99.90;;;;;;5071228;28;20041;-74
2023/12/25 06:06:34;;;;;;;9.02;2.47;;;10.80;99.90;;;;;;5070122;28;20496;-74
2023/12/25 06:09:00;;;;;;;14.10;3.05;;;10.80;99.90;;;;;;5070839;28;20071;-74
2023/12/25 06:11:25;;;;;;;7.90;1.80;;;11.00;99.90;;;;;;5070923;28;20492;-74
2023/12/25 06:13:51;;;;;;;16.63;3.30;;;10.90;99.90;;;;;;5070793;28;20036;-75
2023/12/25 06:16:16;;;;;;;12.90;3.45;;;10.90;99.90;;;;;;5070646;28;20052;-74
2023/12/25 06:18:42;;;;;;;18.05;2.22;;;10.90;99.90;;;;;;5070601;28;20032;-74
2023/12/25 06:21:08;;;;;;;11.93;2.90;;;10.90;99.90;;;;;;5071031;28;20466;-74
2023/12/25 06:23:34;;;;;;;15.25;3.63;;;10.80;99.90;;;;;;5070767;28;20047;-74
2023/12/25 06:26:00;;;;;;;6.05;1.88;;;10.90;99.90;;;;;;5053866;28;20066;-74
2023/12/25 06:28:26;;;;;;;11.55;2.28;;;10.80;99.90;;;;;;5053762;28;20048;-74
2023/12/25 06:30:52;;;;;;;14.75;3.35;;;10.90;99.90;;;;;;5070658;28;20041;-74
2023/12/25 06:33:19;;;;;;;8.85;2.53;;;10.70;99.90;;;;;;5070545;28;20052;-74
2023/12/25 06:35:44;;;;;;;10.50;2.65;;;10.80;99.90;;;;;;5070459;28;20117;-74
2023/12/25 06:38:12;;;;;;;12.50;2.70;;;10.80;99.90;;;;;;5070302;28;20067;-74
2023/12/25 06:40:38;;;;;;;13.95;2.10;;;10.80;99.90;;;;;;5070668;28;20061;-74
2023/12/25 06:43:03;;;;;;;14.07;2.80;;;10.80;99.90;;;;;;5070423;28;20127;-74
2023/12/25 06:45:29;;;;;;;8.35;2.63;;;10.80;99.90;;;;;;5070260;28;20062;-74
2023/12/25 06:47:55;;;;;;;8.13;2.35;;;10.70;99.90;;;;;;5053402;28;20041;-74
2023/12/25 06:50:20;;;;;;;9.55;2.78;;;10.70;99.90;;;;;;5070422;28;20052;-74
2023/12/25 06:52:46;;;;;;;12.27;3.40;;;10.70;99.90;;;;;;5070502;28;20044;-74
2023/12/25 06:55:12;;;;;;;11.88;2.50;;;10.60;99.90;;;;;;5070520;28;20040;-74
2023/12/25 06:57:38;;;;;;;12.63;2.42;;;10.70;99.90;;;;;;5053333;28;20503;-74
2023/12/25 07:00:05;;;;;;;10.60;2.55;;;10.60;99.90;;;;;;5070592;28;20090;-74
2023/12/25 07:02:31;;;;;;;13.95;3.22;;;10.70;99.90;;;;;;5070247;28;20119;-74
2023/12/25 07:04:56;;;;;;;22.00;3.75;;;10.70;99.90;;;;;;5070196;28;20048;-74
2023/12/25 07:07:22;;;;;;;18.85;3.42;;;10.70;99.90;;;;;;5070281;28;20063;-74
2023/12/25 07:09:48;;;;;;;10.73;2.25;;;10.80;99.90;;;;;;5070507;28;20135;-74
2023/12/25 07:12:13;;;;;;;15.82;3.05;;;10.70;99.90;;;;;;5071334;28;20041;-74
2023/12/25 07:14:42;;;;;;;10.63;2.10;;;10.50;99.90;;;;;;5070126;28;20040;-74
2023/12/25 07:17:08;;;;;;;9.77;2.22;;;10.70;99.90;;;;;;5070341;28;20512;-74
2023/12/25 07:19:34;;;;;;;13.00;2.20;;;10.70;99.90;;;;;;5074273;28;20121;-74
2023/12/25 07:22:01;;;;;;;12.85;2.30;;;10.70;99.90;;;;;;5074432;28;20434;-74
2023/12/25 07:24:27;;;;;;;7.90;1.98;;;10.70;99.90;;;;;;5057385;28;20029;-74
2023/12/25 07:26:53;;;;;;;17.67;3.35;;;10.70;99.90;;;;;;5074985;28;20480;-74
2023/12/25 07:29:18;;;;;;;10.80;2.40;;;10.70;99.90;;;;;;5075357;28;20115;-74
2023/12/25 07:31:44;;;;;;;13.57;3.40;;;10.70;99.90;;;;;;5073930;28;20040;-74
2023/12/25 07:34:10;;;;;;;12.32;2.70;;;10.70;99.90;;;;;;5073760;28;20036;-74
2023/12/25 07:36:35;;;;;;;9.98;1.92;;;10.60;99.90;;;;;;5073785;28;20029;-74
2023/12/25 07:39:01;;;;;;;14.30;2.63;;;10.60;99.90;;;;;;5073654;28;20044;-74
2023/12/25 07:41:27;;;;;;;6.80;1.80;;;10.60;99.90;;;;;;5073985;28;20045;-74
2023/12/25 07:43:52;;;;;;;9.55;1.73;;;10.60;99.90;;;;;;5073704;28;20047;-74
2023/12/25 07:46:18;;;;;;;13.05;2.30;;;10.60;99.90;;;;;;5073208;28;20040;-74
2023/12/25 07:48:43;;;;;;;20.27;3.25;;;10.60;99.90;;;;;;5073220;28;20121;-74
2023/12/25 07:51:09;;;;;;;13.65;3.47;;;10.50;99.90;;;;;;5056691;28;20044;-75
2023/12/25 07:53:35;;;;;;;16.65;3.10;;;10.50;99.90;;;;;;5073419;28;20067;-74
2023/12/25 07:56:00;;;;;;;11.95;3.03;;;10.60;99.90;;;;;;5073202;28;20036;-74
2023/12/25 07:58:26;;;;;;;10.13;2.38;;;10.60;99.90;;;;;;5073290;28;20040;-75
2023/12/25 08:00:52;;;;;;;13.25;2.30;;;10.60;99.90;;;;;;5073364;28;20036;-75
2023/12/25 08:03:17;;;;;;;6.55;1.88;;;10.50;99.90;;;;;;5073516;28;20044;-75
2023/12/25 08:05:43;;;;;;;8.25;2.45;;;10.60;99.90;;;;;;5073310;28;20182;-74
2023/12/25 08:08:09;;;;;;;13.80;2.80;;;10.50;99.90;;;;;;5073239;28;20051;-74
2023/12/25 08:10:34;;;;;;;15.55;2.75;;;10.70;99.90;;;;;;5073271;28;20045;-74
2023/12/25 08:13:02;;;;;;;7.90;1.90;;;10.70;99.90;;;;;;5073373;28;20036;-74
2023/12/25 08:15:28;;;;;;;10.48;1.83;;;10.60;99.90;;;;;;5072941;28;20041;-75
2023/12/25 08:17:54;;;;;;;13.48;3.25;;;10.60;99.90;;;;;;5063645;28;20518;-75
2023/12/25 08:20:20;;;;;;;14.93;3.03;;;10.70;99.90;;;;;;5061764;28;20037;-75
2023/12/25 08:22:45;;;;;;;11.07;2.88;;;10.60;99.90;;;;;;5040757;28;20037;-74
2023/12/25 08:25:11;;;;;;;9.18;2.40;;;10.50;99.90;;;;;;5052744;28;20048;-75
2023/12/25 08:27:36;;;;;;;7.55;2.53;;;10.60;99.90;;;;;;5052707;28;20036;-75
2023/12/25 08:30:03;;;;;;;10.75;3.15;;;10.40;99.90;;;;;;5051967;28;20041;-75
2023/12/25 08:32:29;;;;;;;16.70;3.08;;;10.50;99.90;;;;;;5052765;28;20500;-75
2023/12/25 08:34:55;;;;;;;16.50;2.83;;;10.50;99.90;;;;;;5060552;28;20035;-74
2023/12/25 08:37:21;;;;;;;8.77;2.83;;;10.50;99.90;;;;;;5053761;28;20063;-74
2023/12/25 08:39:46;;;;;;;11.52;2.70;;;10.40;99.90;;;;;;5052842;28;20036;-74
2023/12/25 08:42:12;;;;;;;8.68;2.33;;;10.40;99.90;;;;;;5070759;28;20041;-74
2023/12/25 08:44:38;;;;;;;11.70;1.98;;;10.40;99.90;;;;;;5066730;28;20043;-75
2023/12/25 08:47:04;;;;;;;7.50;1.50;;;10.40;99.90;;;;;;5078975;22;20044;-77
2023/12/25 08:49:30;;;;;;;8.40;1.20;;;10.40;99.90;;;;;;5074861;28;20045;-77
2023/12/25 08:51:55;;;;;;;8.20;2.33;;;10.30;99.90;;;;;;5074492;28;20033;-78
2023/12/25 08:54:21;;;;;;;8.77;1.92;;;10.40;99.90;;;;;;5057887;28;20075;-80
2023/12/25 08:56:47;;;;;;;11.10;2.13;;;10.40;99.90;;;;;;5067244;28;20028;-79
2023/12/25 08:59:13;;;;;;;10.15;1.60;;;10.30;99.90;;;;;;5077964;28;20447;-79
2023/12/25 09:01:39;;;;;;;9.75;1.30;;;10.30;99.90;;;;;;5078963;28;20036;-78
2023/12/25 09:04:06;;;;;;;12.10;2.33;;;10.20;99.90;;;;;;5078094;28;20063;-78
2023/12/25 09:06:32;;;;;;;9.40;1.40;;;10.20;99.90;;;;;;5075972;28;20032;-77
2023/12/25 09:08:58;;;;;;;10.05;2.65;;;10.30;99.90;;;;;;5074957;28;20052;-77
2023/12/25 09:11:23;;;;;;;4.65;1.20;;;10.30;99.90;;;;;;5073487;28;20041;-77
2023/12/25 09:13:49;;;;;;;4.05;1.35;;;10.30;99.90;;;;;;5074848;28;20409;-78
2023/12/25 09:16:15;;;;;;;11.25;1.30;;;10.30;99.90;;;;;;5074269;28;20116;-79
2023/12/25 09:18:40;;;;;;;12.57;1.80;;;10.20;99.90;;;;;;5076270;28;20041;-78
2023/12/25 09:21:06;;;;;;;5.57;1.35;;;10.10;99.90;;;;;;5079195;28;20093;-78
2023/12/25 09:23:31;;;;;;;4.20;0.93;;;10.20;99.90;;;;;;5078191;28;20044;-78
2023/12/25 09:25:57;;;;;;;5.75;1.55;;;10.20;99.90;;;;;;5075523;28;20033;-78
2023/12/25 09:28:23;;;;;;;5.82;1.20;;;10.20;99.90;;;;;;5075319;28;20478;-79
2023/12/25 09:30:48;;;;;;;7.70;2.17;;;10.20;99.90;;;;;;5076888;28;20044;-79
2023/12/25 09:33:14;;;;;;;7.45;1.40;;;10.10;99.90;;;;;;5076460;28;20124;-79
2023/12/25 09:35:40;;;;;;;5.13;2.00;;;10.20;99.90;;;;;;5076097;28;20029;-77
2023/12/25 09:38:06;;;;;;;8.60;2.53;;;10.20;99.90;;;;;;5075752;28;20029;-79
2023/12/25 09:40:31;;;;;;;9.57;1.25;;;10.10;99.90;;;;;;5075132;28;20595;-79
2023/12/25 09:42:59;;;;;;;7.97;1.58;;;10.20;99.90;;;;;;5075309;28;20392;-79
2023/12/25 09:45:31;;;;;;;8.35;1.55;;;10.20;99.90;;;;;;5073256;28;20044;-76
2023/12/25 09:47:57;;;;;;;6.03;1.25;;;10.20;99.90;;;;;;5057689;28;20499;-78
2023/12/25 09:50:23;;;;;;;6.07;1.75;;;10.10;99.90;;;;;;5059496;28;20131;-77
2023/12/25 09:52:48;;;;;;;8.90;1.83;;;10.20;99.90;;;;;;5075441;28;20045;-78
2023/12/25 09:55:14;;;;;;;8.10;1.60;;;10.20;99.90;;;;;;5076014;28;20028;-79
2023/12/25 09:57:41;;;;;;;6.82;1.38;;;10.10;99.90;;;;;;5075363;28;20041;-77
2023/12/25 10:00:08;;;;;;;12.25;3.05;;;10.10;99.90;;;;;;5073734;28;20119;-79
2023/12/25 10:02:37;;;;;;;4.97;1.35;;;10.20;99.90;;;;;;5076015;28;20040;-77
2023/12/25 10:05:04;;;;;;;4.55;1.38;;;10.00;99.90;;;;;;5078393;28;20044;-79
2023/12/25 10:07:30;;;;;;;9.98;1.95;;;10.10;99.90;;;;;;5078054;28;20492;-78
2023/12/25 10:09:57;;;;;;;12.35;2.58;;;10.10;99.90;;;;;;5058610;28;20036;-78
2023/12/25 10:12:23;;;;;;;7.38;2.15;;;10.00;99.90;;;;;;5076633;28;20075;-78
2023/12/25 10:14:48;;;;;;;7.93;1.48;;;10.10;99.90;;;;;;5075242;28;20036;-79
2023/12/25 10:17:15;;;;;;;10.20;1.67;;;10.10;99.90;;;;;;5079382;28;20036;-79
2023/12/25 10:19:52;;;;;;;8.38;1.80;;;10.10;99.90;;;;;;5077554;28;20040;-78
2023/12/25 10:22:28;;;;;;;5.80;1.65;;;10.10;99.90;;;;;;5077175;28;20035;-77
2023/12/25 10:24:55;;;;;;;9.98;2.28;;;10.10;99.90;;;;;;5081067;28;20041;-79
2023/12/25 10:27:22;;;;;;;9.82;2.08;;;10.10;99.90;;;;;;5080622;28;20048;-80
2023/12/25 10:29:48;;;;;;;7.22;1.20;;;10.10;99.90;;;;;;5075028;28;20446;-78
2023/12/25 10:32:18;;;;;;;5.47;1.48;;;10.10;99.90;;;;;;5076289;28;20044;-78
2023/12/25 10:34:43;;;;;;;8.13;1.30;;;10.20;99.90;;;;;;5075465;28;20511;-78
2023/12/25 10:37:10;;;;;;;6.22;1.88;;;10.20;99.90;;;;;;5074782;28;20032;-78
2023/12/25 10:39:35;;;;;;;6.57;2.00;;;10.20;99.90;;;;;;5071609;28;20044;-77
2023/12/25 10:42:02;;;;;;;6.75;1.42;;;10.20;99.90;;;;;;5071459;28;20036;-78
2023/12/25 10:44:29;;;;;;;11.93;2.00;;;10.20;99.90;;;;;;5070564;28;20043;-77
2023/12/25 10:46:57;;;;;;;13.93;3.10;;;10.20;99.90;;;;;;5076154;28;20040;-78
2023/12/25 10:49:25;;;;;;;12.73;2.78;;;10.20;99.90;;;;;;5075874;28;20044;-78
2023/12/25 10:51:51;;;;;;;8.00;2.03;;;10.30;99.90;;;;;;5073553;28;20044;-78
2023/12/25 10:54:19;;;;;;;11.15;2.63;;;10.30;99.90;;;;;;5074372;28;20040;-78
2023/12/25 10:56:48;;;;;;;9.75;2.50;;;10.30;99.90;;;;;;5073037;28;20572;-77
2023/12/25 10:59:24;;;;;;;7.25;1.85;;;10.30;99.90;;;;;;5075554;28;20033;-79
2023/12/25 11:01:52;;;;;;;7.22;2.17;;;10.30;99.90;;;;;;5073111;28;20046;-78
2023/12/25 11:04:20;;;;;;;8.43;2.35;;;10.30;99.90;;;;;;5070264;28;20068;-78
2023/12/25 11:06:46;;;;;;;7.40;2.67;;;10.30;99.90;;;;;;5075093;28;20082;-78
2023/12/25 11:09:12;;;;;;;10.77;2.58;;;10.40;99.90;;;;;;5076418;28;20045;-78
2023/12/25 11:11:39;;;;;;;12.00;2.72;;;10.30;99.90;;;;;;5073112;28;20403;-78
2023/12/25 11:14:06;;;;;;;10.65;2.13;;;10.40;99.90;;;;;;5073307;28;20102;-78
2023/12/25 11:16:33;;;;;;;7.57;2.15;;;10.30;99.90;;;;;;5070559;28;20039;-78
2023/12/25 11:19:00;;;;;;;13.88;2.00;;;10.40;99.90;;;;;;5073607;28;20041;-78
2023/12/25 11:21:30;;;;;;;8.38;3.00;;;10.30;99.90;;;;;;5071783;28;20159;-78
2023/12/25 11:23:58;;;;;;;9.35;2.25;;;10.30;99.90;;;;;;5069185;28;20059;-78
2023/12/25 11:26:25;;;;;;;12.18;2.53;;;10.30;99.90;;;;;;5085023;28;20129;-78
2023/12/25 11:29:00;;;;;;;9.50;2.13;;;10.30;99.90;;;;;;5072855;28;20091;-78
2023/12/25 11:31:28;;;;;;;10.85;3.85;;;10.40;99.90;;;;;;5072274;28;20112;-78
2023/12/25 11:34:18;;;;;;;11.10;2.35;;;10.40;99.90;;;;;;5072454;28;20048;-78
2023/12/25 11:36:45;;;;;;;15.57;3.20;;;10.40;99.90;;;;;;5070446;28;20032;-78
2023/12/25 11:39:12;;;;;;;12.40;2.10;;;10.40;99.90;;;;;;5073903;28;20064;-78
2023/12/25 11:41:37;;;;;;;15.60;3.05;;;10.50;99.90;;;;;;5054957;28;20037;-78
2023/12/25 11:44:06;;;;;;;11.90;3.13;;;10.50;99.90;;;;;;5071645;28;20070;-79
2023/12/25 11:46:34;;;;;;;12.30;2.35;;;10.40;99.90;;;;;;5071107;28;20492;-79
2023/12/25 11:49:00;;;;;;;19.15;3.42;;;10.40;99.90;;;;;;5071667;28;20045;-78
2023/12/25 11:51:29;;;;;;;10.70;2.35;;;10.50;99.90;;;;;;5070561;28;20091;-78
2023/12/25 11:53:59;;;;;;;12.82;3.13;;;10.50;99.90;;;;;;5070276;28;20072;-78
2023/12/25 11:56:28;;;;;;;14.40;3.00;;;10.60;99.90;;;;;;5073134;28;20044;-78
2023/12/25 11:58:54;;;;;;;12.77;2.75;;;10.40;99.90;;;;;;5068891;28;20089;-77
2023/12/25 12:01:20;;;;;;;12.07;2.92;;;10.50;99.90;;;;;;5067937;28;20123;-77
2023/12/25 12:03:50;;;;;;;20.02;3.75;;;10.50;99.90;;;;;;5070393;28;20033;-77
2023/12/25 12:06:18;;;;;;;19.02;3.55;;;10.40;99.90;;;;;;5074035;28;20046;-77
2023/12/25 12:08:45;;;;;;;14.40;3.40;;;10.50;99.90;;;;;;5075799;28;20045;-78
2023/12/25 12:11:13;;;;;;;13.35;2.83;;;10.50;99.90;;;;;;5074554;28;20044;-78
2023/12/25 12:13:39;;;;;;;21.83;4.72;;;10.40;99.90;;;;;;5073176;28;20137;-77
2023/12/25 12:16:06;;;;;;;13.20;3.90;;;10.50;99.90;;;;;;5073197;28;20523;-77
2023/12/25 12:18:32;;;;;;;16.05;4.97;;;10.40;99.90;;;;;;5070942;28;20523;-77
2023/12/25 12:20:58;;;;;;;11.20;3.72;;;10.40;99.90;;;;;;5057001;28;20064;-78
2023/12/25 12:23:26;;;;;;;11.85;3.80;;;10.40;99.90;;;;;;5074406;28;20059;-78
2023/12/25 12:25:51;;;;;;;18.70;5.05;;;10.50;99.90;;;;;;5074150;28;20041;-78
2023/12/25 12:28:18;;;;;;;13.43;3.20;;;10.30;99.90;;;;;;5074897;28;20450;-78
2023/12/25 12:30:44;;;;;;;18.70;3.40;;;10.30;99.90;;;;;;5073956;28;20119;-78
2023/12/25 12:33:11;;;;;;;9.43;2.92;;;10.30;99.90;;;;;;5075296;28;20082;-78
2023/12/25 12:35:38;;;;;;;19.73;3.85;;;10.30;99.90;;;;;;5075489;28;20115;-78